Time;durP1;ratioP1;P1;durP2;ratioP2;P2;SDS_P1;SDS_P2;PMS_P1;PMS_P2;Temp;Humidity;BMP_temperature;BMP_pressure;BME280_temperature;BME280_humidity;BME280_pressure;Samples;Min_cycle;Max_cycle;Signal;HPM_P1;HPM_P2
2022/09/06 00:01:09;;;;;;;2.47;2.27;;;;;;;20.07;74.55;100195.19;4997968;28;20211;-70
2022/09/06 00:03:35;;;;;;;4.00;2.43;;;;;;;20.00;74.91;100195.34;4998101;28;20238;-71
2022/09/06 00:06:08;;;;;;;2.57;2.30;;;;;;;19.99;75.17;100187.47;4993699;28;20662;-71
2022/09/06 00:08:35;;;;;;;2.63;2.43;;;;;;;20.01;75.03;100196.97;4994399;28;20654;-71
2022/09/06 00:11:02;;;;;;;4.93;2.83;;;;;;;20.02;75.06;100197.81;4995500;28;20195;-69
2022/09/06 00:13:29;;;;;;;3.00;2.73;;;;;;;20.00;75.29;100208.81;4994893;28;20579;-69
2022/09/06 00:15:56;;;;;;;5.50;2.80;;;;;;;20.02;75.02;100203.19;4995153;28;20258;-71
2022/09/06 00:18:23;;;;;;;3.10;2.50;;;;;;;19.99;74.89;100203.66;4994741;28;20222;-70
2022/09/06 00:20:49;;;;;;;2.80;2.60;;;;;;;19.95;75.10;100208.72;4995369;28;20197;-71
2022/09/06 00:23:17;;;;;;;2.90;2.70;;;;;;;19.93;75.33;100210.03;4994862;28;20257;-70
2022/09/06 00:25:44;;;;;;;5.10;2.83;;;;;;;19.85;75.50;100197.72;4995674;28;20202;-70
2022/09/06 00:28:11;;;;;;;3.00;2.80;;;;;;;19.83;76.12;100204.41;4995462;28;20245;-70
2022/09/06 00:30:38;;;;;;;2.50;2.40;;;;;;;19.88;75.87;100196.41;4994671;28;20662;-71
2022/09/06 00:33:04;;;;;;;2.50;2.40;;;;;;;19.94;75.30;100200.88;4995061;28;20194;-71
2022/09/06 00:35:31;;;;;;;3.20;3.00;;;;;;;19.98;75.36;100202.03;4994405;28;20261;-71
2022/09/06 00:37:59;;;;;;;3.77;2.73;;;;;;;20.00;75.09;100199.91;4994618;28;20235;-71
2022/09/06 00:40:29;;;;;;;3.00;2.80;;;;;;;20.02;75.21;100204.00;4994724;28;20253;-71
2022/09/06 00:42:56;;;;;;;4.57;2.40;;;;;;;20.04;75.15;100203.75;4995317;28;20632;-71
2022/09/06 00:45:24;;;;;;;3.60;2.60;;;;;;;20.05;74.92;100203.53;4994181;28;20199;-72
2022/09/06 00:47:51;;;;;;;3.00;2.80;;;;;;;20.03;75.19;100205.66;4994707;28;20640;-70
2022/09/06 00:50:19;;;;;;;2.70;2.50;;;;;;;20.04;75.43;100206.47;4994235;28;20612;-70
2022/09/06 00:52:48;;;;;;;4.13;2.97;;;;;;;19.97;75.72;100205.81;4995298;28;20647;-70
2022/09/06 00:55:16;;;;;;;2.93;2.73;;;;;;;19.82;76.43;100203.63;4994479;28;20257;-69
2022/09/06 00:57:45;;;;;;;3.80;2.90;;;;;;;19.70;77.08;100204.69;4994400;28;20223;-70
2022/09/06 01:00:14;;;;;;;6.37;2.90;;;;;;;19.62;77.39;100207.75;4993974;28;20257;-71
2022/09/06 01:02:42;;;;;;;3.30;3.10;;;;;;;19.57;77.75;100207.66;4994403;28;20201;-71
2022/09/06 01:05:11;;;;;;;3.20;3.00;;;;;;;19.50;78.04;100204.25;4994188;28;20285;-71
2022/09/06 01:08:02;;;;;;;3.13;2.83;;;;;;;19.47;77.61;100199.31;4994339;28;20290;-70
2022/09/06 01:11:01;;;;;;;3.47;3.10;;;;;;;19.48;77.88;100201.78;4993944;28;20196;-71
2022/09/06 01:13:38;;;;;;;3.87;3.57;;;;;;;19.44;78.40;100199.81;4991587;28;20201;-70
2022/09/06 01:16:13;;;;;;;3.73;2.90;;;;;;;19.33;79.04;100203.31;4993270;28;20182;-70
2022/09/06 01:19:01;;;;;;;4.03;3.43;;;;;;;19.28;79.18;100200.53;4993336;28;20214;-71
2022/09/06 01:21:44;;;;;;;3.00;2.90;;;;;;;19.31;78.76;100200.03;4974061;28;20248;-70
2022/09/06 01:24:29;;;;;;;4.80;3.27;;;;;;;19.25;79.19;100207.22;4974206;28;20193;-70
2022/09/06 01:27:32;;;;;;;4.87;3.03;;;;;;;19.27;79.29;100209.63;4974317;28;20230;-71
2022/09/06 01:30:05;;;;;;;4.23;3.30;;;;;;;19.24;79.14;100197.47;4973897;28;20657;-71
2022/09/06 01:32:41;;;;;;;3.20;2.83;;;;;;;19.20;79.21;100193.56;4974003;28;20238;-71
2022/09/06 01:35:18;;;;;;;3.10;2.90;;;;;;;19.21;79.44;100202.47;4974143;28;20186;-72
2022/09/06 01:37:45;;;;;;;3.20;3.00;;;;;;;19.21;79.61;100199.78;4973965;28;20761;-72
2022/09/06 01:40:12;;;;;;;3.40;3.10;;;;;;;19.21;79.56;100194.41;4973643;28;20630;-72
2022/09/06 01:42:40;;;;;;;3.30;2.90;;;;;;;19.18;79.51;100184.91;4973939;28;20204;-72
2022/09/06 01:45:11;;;;;;;3.57;3.27;;;;;;;19.20;79.59;100187.38;4973660;28;20200;-72
2022/09/06 01:47:47;;;;;;;4.97;3.30;;;;;;;19.20;79.65;100179.28;4973861;28;20191;-72
2022/09/06 01:50:35;;;;;;;4.27;3.37;;;;;;;19.21;79.76;100179.06;4973521;28;20197;-72
2022/09/06 01:53:12;;;;;;;3.83;3.17;;;;;;;19.21;79.88;100178.22;4973830;28;20195;-72
2022/09/06 01:55:44;;;;;;;3.10;2.80;;;;;;;19.16;80.38;100167.34;4973932;28;20251;-72
2022/09/06 01:58:36;;;;;;;3.53;3.17;;;;;;;19.12;80.26;100164.28;4973626;28;20242;-72
2022/09/06 02:01:14;;;;;;;3.60;3.30;;;;;;;19.05;80.16;100165.47;4973519;28;20254;-72
2022/09/06 02:03:50;;;;;;;3.70;3.40;;;;;;;18.90;80.75;100165.09;4973869;28;20279;-72
2022/09/06 02:06:23;;;;;;;6.60;3.20;;;;;;;18.80;81.06;100154.09;4973445;28;20189;-72
2022/09/06 02:08:55;;;;;;;3.57;3.27;;;;;;;18.70;81.13;100151.19;4973705;28;20192;-72
2022/09/06 02:11:25;;;;;;;6.00;3.97;;;;;;;18.60;81.83;100156.31;4973091;28;20657;-73
2022/09/06 02:13:56;;;;;;;9.40;3.90;;;;;;;18.49;81.72;100157.09;4973742;28;20195;-72
2022/09/06 02:16:27;;;;;;;6.63;3.93;;;;;;;18.43;82.00;100164.25;4973189;28;20196;-73
2022/09/06 02:18:59;;;;;;;8.03;3.33;;;;;;;18.36;82.07;100154.59;4973054;28;20212;-72
2022/09/06 02:21:30;;;;;;;6.53;3.67;;;;;;;18.27;82.71;100153.28;4992504;28;20190;-72
2022/09/06 02:24:00;;;;;;;7.90;3.50;;;;;;;18.22;83.24;100150.47;4992701;28;20598;-72
2022/09/06 02:26:30;;;;;;;5.63;3.70;;;;;;;18.22;82.45;100155.84;4992425;28;20187;-71
2022/09/06 02:28:57;;;;;;;3.13;2.70;;;;;;;18.17;81.94;100159.19;4992325;28;20217;-72
2022/09/06 02:31:29;;;;;;;4.77;3.00;;;;;;;18.13;82.40;100159.91;4992197;28;20194;-72
2022/09/06 02:33:57;;;;;;;4.37;2.90;;;;;;;18.14;82.25;100162.38;4992648;28;20647;-72
2022/09/06 02:36:24;;;;;;;4.00;2.87;;;;;;;18.14;81.54;100162.38;4992274;28;20198;-72
2022/09/06 02:38:51;;;;;;;3.60;2.67;;;;;;;18.09;81.44;100172.16;4992428;28;20218;-72
2022/09/06 02:41:21;;;;;;;2.90;2.67;;;;;;;18.03;82.10;100151.53;4992342;28;20292;-72
2022/09/06 02:43:48;;;;;;;3.50;3.20;;;;;;;18.01;82.32;100159.84;4992561;28;20193;-71
2022/09/06 02:46:15;;;;;;;4.13;3.63;;;;;;;17.96;82.76;100154.31;4992642;28;20764;-71
2022/09/06 02:48:43;;;;;;;4.33;3.07;;;;;;;17.97;82.67;100158.66;4992537;28;20758;-71
2022/09/06 02:51:10;;;;;;;3.50;3.30;;;;;;;17.93;82.95;100153.97;4993002;28;20760;-71
2022/09/06 02:53:37;;;;;;;3.57;3.27;;;;;;;17.92;83.13;100149.66;4993204;28;20221;-70
2022/09/06 02:56:04;;;;;;;4.23;3.73;;;;;;;17.96;83.08;100145.44;4992352;28;20273;-71
2022/09/06 02:58:31;;;;;;;3.30;3.07;;;;;;;17.96;82.98;100150.81;4992387;28;20284;-71
2022/09/06 03:00:57;;;;;;;4.67;3.17;;;;;;;17.98;83.06;100159.47;4992649;28;20265;-71
2022/09/06 03:03:26;;;;;;;4.40;3.37;;;;;;;17.99;83.04;100172.69;4992116;28;20194;-71
2022/09/06 03:05:55;;;;;;;4.03;3.73;;;;;;;18.04;82.78;100167.44;4992377;28;20606;-71
2022/09/06 03:08:24;;;;;;;4.03;3.23;;;;;;;18.09;82.65;100166.78;4992485;28;20669;-72
2022/09/06 03:10:54;;;;;;;3.63;3.33;;;;;;;18.07;82.98;100172.38;4992250;28;20249;-71
2022/09/06 03:13:22;;;;;;;6.30;3.03;;;;;;;18.10;82.78;100173.78;4992776;28;20254;-71
2022/09/06 03:15:51;;;;;;;7.47;3.67;;;;;;;18.15;82.62;100176.63;4992626;28;20203;-71
2022/09/06 03:18:17;;;;;;;7.57;3.93;;;;;;;18.18;82.49;100181.53;4992031;28;20317;-71
2022/09/06 03:20:44;;;;;;;5.67;4.10;;;;;;;18.17;82.32;100178.03;4991785;28;20753;-71
2022/09/06 03:23:12;;;;;;;6.10;4.03;;;;;;;18.20;82.60;100184.81;4991681;28;20195;-71
2022/09/06 03:25:39;;;;;;;4.67;4.27;;;;;;;18.22;82.56;100182.72;4992269;28;20191;-73
2022/09/06 03:28:06;;;;;;;5.23;4.10;;;;;;;18.25;82.38;100187.66;4992139;28;20234;-71
2022/09/06 03:30:32;;;;;;;5.47;4.53;;;;;;;18.27;82.53;100182.84;4992209;28;20265;-72
2022/09/06 03:32:59;;;;;;;9.57;4.70;;;;;;;18.26;82.77;100183.91;4991933;28;20257;-73
2022/09/06 03:35:26;;;;;;;5.17;4.10;;;;;;;18.26;82.38;100183.91;4991890;28;20557;-69
2022/09/06 03:37:53;;;;;;;9.50;4.80;;;;;;;18.24;82.94;100181.44;4991662;28;20762;-70
2022/09/06 03:40:21;;;;;;;9.47;4.70;;;;;;;18.23;82.77;100184.34;4994924;28;20191;-70
2022/09/06 03:42:47;;;;;;;5.00;4.53;;;;;;;18.22;82.88;100188.09;4995746;28;20199;-71
2022/09/06 03:45:14;;;;;;;7.40;4.30;;;;;;;18.20;83.23;100184.81;4995860;28;20198;-70
2022/09/06 03:47:41;;;;;;;7.80;3.90;;;;;;;18.23;83.10;100178.97;4995765;28;20231;-70
2022/09/06 03:50:09;;;;;;;10.80;4.63;;;;;;;18.18;83.52;100181.53;4994994;28;20224;-71
2022/09/06 03:52:35;;;;;;;7.63;4.70;;;;;;;18.16;83.58;100180.94;4995407;28;20202;-71
2022/09/06 03:55:02;;;;;;;4.50;3.80;;;;;;;18.18;83.41;100181.53;4995529;28;20561;-70
2022/09/06 03:57:30;;;;;;;10.63;4.27;;;;;;;18.19;83.59;100191.25;4994823;28;20284;-71
2022/09/06 03:59:57;;;;;;;4.50;4.20;;;;;;;18.13;83.63;100179.53;4995120;28;20753;-70
2022/09/06 04:02:24;;;;;;;5.43;4.13;;;;;;;18.21;83.42;100191.84;4994796;28;20198;-71
2022/09/06 04:04:54;;;;;;;7.87;4.37;;;;;;;18.22;83.65;100193.50;4994985;28;20662;-70
2022/09/06 04:07:21;;;;;;;10.63;4.70;;;;;;;18.19;83.80;100197.44;4995502;28;20199;-70
2022/09/06 04:09:48;;;;;;;7.73;4.77;;;;;;;18.24;83.27;100200.28;4995299;28;20203;-70
2022/09/06 04:12:15;;;;;;;6.93;4.53;;;;;;;18.23;84.07;100203.19;4994594;28;20209;-69
2022/09/06 04:14:43;;;;;;;7.90;4.60;;;;;;;18.28;84.06;100209.53;4994793;28;20249;-70
2022/09/06 04:17:11;;;;;;;12.10;4.90;;;;;;;18.39;83.71;100213.34;4995069;28;20199;-71
2022/09/06 04:19:38;;;;;;;13.10;5.37;;;;;;;18.59;82.96;100213.88;4994918;28;20246;-70
2022/09/06 04:22:04;;;;;;;5.70;5.10;;;;;;;18.81;81.57;100214.97;4995029;28;20200;-70
2022/09/06 04:24:31;;;;;;;8.93;5.03;;;;;;;18.99;80.70;100217.59;4995477;28;20246;-69
2022/09/06 04:26:58;;;;;;;11.40;4.90;;;;;;;19.23;80.22;100216.50;4994862;28;20772;-70
2022/09/06 04:29:25;;;;;;;8.47;4.93;;;;;;;19.50;79.95;100220.41;4994494;28;20239;-70
2022/09/06 04:31:53;;;;;;;7.60;4.80;;;;;;;19.88;78.10;100215.28;4994994;28;20198;-70
2022/09/06 04:34:19;;;;;;;5.47;4.20;;;;;;;20.23;74.99;100224.97;4994959;28;20191;-70
2022/09/06 04:36:46;;;;;;;13.43;4.30;;;;;;;20.62;73.20;100230.53;4994218;28;20663;-71
2022/09/06 04:39:13;;;;;;;7.67;4.47;;;;;;;20.86;71.91;100230.16;4994000;28;20277;-70
2022/09/06 04:41:41;;;;;;;10.60;4.53;;;;;;;21.07;70.69;100234.84;4994420;28;20201;-71
2022/09/06 04:44:07;;;;;;;4.80;4.10;;;;;;;21.36;69.67;100228.25;4993882;28;20285;-73
2022/09/06 04:46:34;;;;;;;4.27;3.90;;;;;;;21.75;68.14;100238.06;4994122;28;20201;-71
2022/09/06 04:49:02;;;;;;;7.03;3.93;;;;;;;21.99;67.25;100223.22;4993922;28;20202;-71
2022/09/06 04:51:30;;;;;;;4.27;3.97;;;;;;;22.19;66.05;100231.59;4993317;28;20195;-71
2022/09/06 04:53:57;;;;;;;4.77;4.37;;;;;;;22.39;64.71;100226.41;4994169;28;20194;-72
2022/09/06 04:56:25;;;;;;;5.83;4.70;;;;;;;22.61;64.63;100227.19;4994239;28;20194;-72
2022/09/06 04:58:54;;;;;;;6.63;3.93;;;;;;;22.96;63.54;100232.94;4993939;28;20702;-72
2022/09/06 05:01:21;;;;;;;4.33;4.07;;;;;;;23.11;63.13;100227.63;4994149;28;20260;-72
2022/09/06 05:03:49;;;;;;;4.70;4.03;;;;;;;23.43;61.85;100239.28;4993951;28;20629;-72
2022/09/06 05:06:21;;;;;;;6.07;4.03;;;;;;;23.77;61.14;100231.63;4993756;28;20207;-72
2022/09/06 05:08:49;;;;;;;6.97;4.67;;;;;;;23.88;59.31;100239.53;4993765;28;20253;-72
2022/09/06 05:11:16;;;;;;;4.10;3.90;;;;;;;24.10;59.26;100231.25;4993657;28;20203;-72
2022/09/06 05:13:43;;;;;;;6.27;4.17;;;;;;;24.19;58.17;100230.47;4993421;28;20190;-72
2022/09/06 05:16:09;;;;;;;5.23;4.73;;;;;;;24.26;57.57;100231.00;4993651;28;20258;-72
2022/09/06 05:18:36;;;;;;;12.30;4.87;;;;;;;24.29;57.24;100235.09;4993052;28;20708;-72
2022/09/06 05:21:03;;;;;;;4.70;4.13;;;;;;;24.43;58.00;100226.16;4993632;28;20261;-72
2022/09/06 05:23:31;;;;;;;6.00;3.90;;;;;;;24.65;57.22;100232.25;4993365;28;20754;-72
2022/09/06 05:25:58;;;;;;;7.03;3.97;;;;;;;25.02;55.81;100233.91;4993119;28;20196;-75
2022/09/06 05:28:25;;;;;;;4.40;3.87;;;;;;;25.51;53.68;100237.69;4993612;28;20236;-74
2022/09/06 05:30:52;;;;;;;5.07;4.10;;;;;;;26.20;51.24;100235.81;4993718;28;20272;-78
2022/09/06 05:33:21;;;;;;;6.03;3.93;;;;;;;26.92;50.76;100238.69;4992818;28;20677;-78
2022/09/06 05:35:48;;;;;;;5.67;3.87;;;;;;;27.57;49.06;100240.84;4992682;28;20626;-78
2022/09/06 05:38:15;;;;;;;5.37;3.33;;;;;;;28.36;46.86;100227.31;4992874;28;20289;-77
2022/09/06 05:40:43;;;;;;;6.80;3.63;;;;;;;29.02;44.38;100233.47;4992616;28;20207;-76
2022/09/06 05:43:10;;;;;;;5.27;3.27;;;;;;;29.65;42.25;100231.00;4992505;28;20245;-77
2022/09/06 05:45:36;;;;;;;7.93;3.53;;;;;;;29.87;41.02;100226.47;4992390;28;20616;-74
2022/09/06 05:48:03;;;;;;;5.83;3.43;;;;;;;30.12;40.63;100220.44;4993103;28;20203;-72
2022/09/06 05:50:30;;;;;;;3.60;3.30;;;;;;;30.33;40.20;100224.41;4992219;28;20591;-72
2022/09/06 05:52:57;;;;;;;3.60;3.27;;;;;;;30.83;38.62;100222.47;4992748;28;20194;-72
2022/09/06 05:55:23;;;;;;;5.40;3.73;;;;;;;31.09;37.56;100221.50;4992870;28;20194;-76
2022/09/06 05:57:52;;;;;;;6.60;3.67;;;;;;;31.14;37.64;100224.13;4992692;28;20234;-74
2022/09/06 06:00:18;;;;;;;4.60;3.63;;;;;;;30.64;37.27;100214.38;4992292;28;20285;-74
2022/09/06 06:02:47;;;;;;;3.77;3.20;;;;;;;30.82;37.70;100209.88;4991210;28;20199;-75
2022/09/06 06:05:14;;;;;;;8.03;3.43;;;;;;;31.25;37.04;100209.06;4992675;28;20195;-74
2022/09/06 06:07:40;;;;;;;5.07;3.60;;;;;;;31.41;36.70;100207.53;4992040;28;20198;-74
2022/09/06 06:10:08;;;;;;;3.73;3.43;;;;;;;31.65;35.87;100204.38;4991981;28;20247;-73
2022/09/06 06:12:34;;;;;;;4.00;3.70;;;;;;;31.62;36.11;100202.28;4992377;28;20205;-74
2022/09/06 06:15:04;;;;;;;5.37;3.37;;;;;;;31.72;36.11;100202.00;4992003;28;20629;-72
2022/09/06 06:17:31;;;;;;;3.47;3.17;;;;;;;31.72;35.92;100202.00;4992249;28;20571;-73
2022/09/06 06:19:58;;;;;;;6.13;3.67;;;;;;;31.82;35.92;100197.06;4987336;28;20772;-73
2022/09/06 06:22:24;;;;;;;2.93;2.80;;;;;;;31.88;35.26;100198.50;5005240;28;20232;-72
2022/09/06 06:24:51;;;;;;;8.10;4.60;;;;;;;31.97;35.12;100204.06;5011584;28;20256;-74
2022/09/06 06:27:18;;;;;;;3.93;3.47;;;;;;;31.35;36.96;100207.97;5011099;28;20656;-73
2022/09/06 06:29:45;;;;;;;4.17;3.73;;;;;;;31.41;36.26;100213.00;5011119;28;20198;-72
2022/09/06 06:32:13;;;;;;;4.33;3.17;;;;;;;30.84;37.95;100202.94;5012451;28;20556;-72
2022/09/06 06:34:39;;;;;;;5.03;3.00;;;;;;;31.20;37.14;100206.38;5000496;28;20583;-70
2022/09/06 06:37:06;;;;;;;4.30;3.60;;;;;;;31.20;37.38;100206.38;4992547;28;20207;-70
2022/09/06 06:39:33;;;;;;;4.70;3.17;;;;;;;31.36;37.14;100202.13;4990026;28;20222;-73
2022/09/06 06:41:59;;;;;;;4.20;4.00;;;;;;;31.44;36.90;100201.38;4980220;28;20206;-72
2022/09/06 06:44:27;;;;;;;4.33;4.03;;;;;;;31.42;36.72;100198.16;4986638;28;20218;-72
2022/09/06 06:46:56;;;;;;;6.40;3.50;;;;;;;31.50;36.19;100194.63;4985892;28;20210;-70
2022/09/06 06:49:24;;;;;;;4.90;3.87;;;;;;;31.59;36.53;100197.41;4989341;28;20205;-73
2022/09/06 06:51:51;;;;;;;8.47;3.57;;;;;;;31.57;36.40;100203.25;4989458;28;20202;-70
2022/09/06 06:54:18;;;;;;;6.67;3.23;;;;;;;31.57;36.57;100195.00;4991086;28;20701;-72
2022/09/06 06:56:45;;;;;;;17.73;4.20;;;;;;;31.41;36.30;100196.53;4991612;28;20195;-71
2022/09/06 06:59:13;;;;;;;6.00;2.83;;;;;;;30.79;37.26;100192.06;4990874;28;20305;-72
2022/09/06 07:01:40;;;;;;;7.20;2.70;;;;;;;31.13;37.37;100200.53;4992029;28;20202;-72
2022/09/06 07:04:09;;;;;;;4.70;3.00;;;;;;;31.44;36.93;100195.88;4991488;28;20206;-73
2022/09/06 07:06:49;;;;;;;5.00;2.33;;;;;;;31.53;36.49;100199.50;4991941;28;20191;-74
2022/09/06 07:09:16;;;;;;;3.03;2.73;;;;;;;31.55;36.41;100196.41;4991544;28;20326;-72
2022/09/06 07:11:43;;;;;;;5.73;2.40;;;;;;;31.65;37.27;100202.44;4992004;28;20246;-71
2022/09/06 07:14:10;;;;;;;6.47;3.27;;;;;;;31.72;36.06;100200.03;4992790;28;20640;-74
2022/09/06 07:16:37;;;;;;;5.70;2.67;;;;;;;31.83;36.04;100203.34;4993261;28;20635;-73
2022/09/06 07:19:03;;;;;;;8.27;2.53;;;;;;;31.91;36.09;100203.38;4993686;28;20769;-74
2022/09/06 07:21:30;;;;;;;8.87;3.30;;;;;;;31.89;36.05;100196.59;4989954;28;20208;-72
2022/09/06 07:23:58;;;;;;;2.43;2.33;;;;;;;31.82;36.00;100197.06;4987932;28;20257;-74
2022/09/06 07:26:27;;;;;;;8.30;2.90;;;;;;;31.83;35.97;100198.66;4988283;28;20261;-77
2022/09/06 07:28:54;;;;;;;5.40;2.40;;;;;;;31.75;35.96;100202.16;5002427;28;20198;-73
2022/09/06 07:31:21;;;;;;;7.40;3.17;;;;;;;31.92;36.07;100195.94;4999747;28;20288;-79
2022/09/06 07:33:48;;;;;;;3.90;3.33;;;;;;;31.47;36.18;100195.25;4998251;28;20631;-76
2022/09/06 07:36:15;;;;;;;5.23;2.97;;;;;;;30.95;37.18;100185.06;4987329;28;20206;-77
2022/09/06 07:38:42;;;;;;;4.90;2.60;;;;;;;31.39;37.24;100193.28;4990348;28;20769;-76
2022/09/06 07:41:10;;;;;;;2.90;2.43;;;;;;;31.31;36.45;100185.81;4991821;28;20206;-76
2022/09/06 07:43:37;;;;;;;2.27;2.10;;;;;;;31.45;35.68;100181.03;4986493;28;20199;-75
2022/09/06 07:46:06;;;;;;;6.47;2.33;;;;;;;31.50;36.19;100182.81;4986378;28;20875;-78
2022/09/06 07:48:35;;;;;;;5.77;2.40;;;;;;;31.33;36.94;100182.75;4985890;28;20203;-75
2022/09/06 07:51:09;;;;;;;5.87;2.50;;;;;;;31.51;35.98;100182.50;4986912;28;20202;-77
2022/09/06 07:53:39;;;;;;;3.63;2.27;;;;;;;31.43;35.44;100185.22;4987187;28;20198;-77
2022/09/06 07:56:08;;;;;;;6.70;2.73;;;;;;;31.34;35.46;100179.69;4988190;28;20195;-74
2022/09/06 07:58:37;;;;;;;3.40;2.70;;;;;;;31.20;37.78;100165.19;4988045;28;20924;-76
2022/09/06 08:01:28;;;;;;;2.53;2.20;;;;;;;31.23;37.06;100177.53;4988169;28;20233;-73
2022/09/06 08:03:59;;;;;;;5.10;2.63;;;;;;;31.12;37.30;100176.16;4987274;28;20681;-72
2022/09/06 08:06:27;;;;;;;4.20;2.13;;;;;;;31.15;37.70;100176.31;4987434;28;20257;-74
2022/09/06 08:08:55;;;;;;;5.37;2.53;;;;;;;30.95;38.03;100170.56;4986711;28;20206;-72
2022/09/06 08:11:22;;;;;;;3.93;2.53;;;;;;;30.92;36.77;100172.00;4988076;28;20210;-72
2022/09/06 08:13:53;;;;;;;8.73;2.83;;;;;;;30.03;38.09;100175.69;4987197;28;20202;-71
2022/09/06 08:16:20;;;;;;;5.03;2.60;;;;;;;30.25;38.63;100167.53;5003803;28;20202;-73
2022/09/06 08:18:51;;;;;;;2.47;2.27;;;;;;;30.63;38.55;100163.38;5008344;28;20264;-73
2022/09/06 08:21:18;;;;;;;2.70;2.37;;;;;;;30.65;38.06;100161.13;4989097;28;20211;-76
2022/09/06 08:23:47;;;;;;;12.43;4.57;;;;;;;30.41;37.97;100166.09;5004328;28;20206;-73
2022/09/06 08:26:13;;;;;;;8.30;2.80;;;;;;;30.63;37.99;100163.38;4986301;28;20301;-72
2022/09/06 08:28:40;;;;;;;3.90;2.80;;;;;;;30.54;38.27;100162.47;4987645;28;20249;-71
2022/09/06 08:31:11;;;;;;;6.93;2.63;;;;;;;30.71;37.78;100167.31;4987647;28;20203;-68
2022/09/06 08:33:38;;;;;;;10.93;2.80;;;;;;;30.83;36.69;100154.66;5000853;28;20202;-63
2022/09/06 08:36:06;;;;;;;2.70;2.50;;;;;;;30.85;35.70;100155.16;4988239;28;20493;-63
2022/09/06 08:38:33;;;;;;;6.93;2.77;;;;;;;30.73;35.70;100146.69;4991302;28;20198;-67
2022/09/06 08:41:08;;;;;;;3.37;2.80;;;;;;;30.41;36.00;100138.66;5005632;28;20313;-64
2022/09/06 08:43:35;;;;;;;7.33;2.00;;;;;;;30.37;37.54;100140.41;4986343;28;20945;-67
2022/09/06 08:46:03;;;;;;;2.43;2.20;;;;;;;30.34;36.58;100138.28;4984774;28;20290;-68
2022/09/06 08:48:34;;;;;;;3.03;2.60;;;;;;;30.00;36.89;100131.66;4985377;28;20205;-66
2022/09/06 08:51:17;;;;;;;3.03;2.67;;;;;;;28.92;39.63;100133.19;4985866;28;20233;-66
2022/09/06 08:53:46;;;;;;;3.77;2.23;;;;;;;29.39;38.87;100137.56;4989147;28;20202;-64
2022/09/06 08:56:17;;;;;;;3.70;2.50;;;;;;;29.46;38.01;100118.81;4992573;28;20282;-73
2022/09/06 08:59:03;;;;;;;4.50;2.20;;;;;;;29.87;39.11;100122.34;4988029;28;20195;-72
2022/09/06 09:01:37;;;;;;;3.23;2.77;;;;;;;29.47;39.16;100125.09;4983921;28;20225;-71
2022/09/06 09:04:13;;;;;;;3.17;2.60;;;;;;;29.02;39.61;100118.56;4987759;28;20203;-73
2022/09/06 09:06:40;;;;;;;5.83;2.87;;;;;;;28.78;40.41;100115.13;4990413;28;20187;-72
2022/09/06 09:09:08;;;;;;;4.43;2.63;;;;;;;28.95;40.06;100115.38;4989700;28;20195;-73
2022/09/06 09:11:39;;;;;;;5.60;2.63;;;;;;;28.97;40.19;100104.94;4988029;28;20273;-74
2022/09/06 09:14:11;;;;;;;6.33;2.70;;;;;;;29.12;39.71;100116.44;4992003;28;20202;-72
2022/09/06 09:16:38;;;;;;;3.73;2.47;;;;;;;29.33;39.45;100088.69;4989859;28;20626;-72
2022/09/06 09:19:08;;;;;;;5.40;2.67;;;;;;;28.81;39.67;100101.69;4975781;28;20203;-73
2022/09/06 09:21:38;;;;;;;2.97;2.67;;;;;;;29.16;40.29;100105.72;4991277;28;20324;-74
2022/09/06 09:24:08;;;;;;;5.63;2.57;;;;;;;29.35;40.05;100091.94;4992419;28;20197;-79
2022/09/06 09:26:40;;;;;;;3.33;3.03;;;;;;;29.47;39.26;100089.50;4991529;28;20194;-80
2022/09/06 09:29:08;;;;;;;3.47;3.17;;;;;;;29.28;38.72;100087.66;4991494;28;20187;-74
2022/09/06 09:31:38;;;;;;;4.00;2.87;;;;;;;29.27;39.33;100077.00;4987389;28;20264;-74
2022/09/06 09:34:11;;;;;;;2.67;2.47;;;;;;;29.79;38.27;100084.72;4988467;28;20206;-73
2022/09/06 09:36:38;;;;;;;3.67;2.80;;;;;;;29.28;38.97;100073.19;4992433;28;20195;-72
2022/09/06 09:39:10;;;;;;;4.50;2.70;;;;;;;29.54;39.73;100078.94;4992221;28;20248;-71
2022/09/06 09:41:40;;;;;;;4.10;2.77;;;;;;;29.77;38.82;100073.25;4993471;28;20298;-73
2022/09/06 09:44:11;;;;;;;3.50;2.70;;;;;;;29.58;38.38;100064.34;4988767;28;20749;-71
2022/09/06 09:46:40;;;;;;;5.13;3.20;;;;;;;29.07;38.83;100074.66;4996643;28;20193;-71
2022/09/06 09:49:11;;;;;;;2.80;2.60;;;;;;;29.43;39.21;100064.63;5004147;28;20198;-72
2022/09/06 09:51:39;;;;;;;4.30;2.70;;;;;;;29.83;37.49;100055.56;4992490;28;20210;-74
2022/09/06 09:54:08;;;;;;;2.60;2.30;;;;;;;30.04;37.37;100062.22;4994018;28;20207;-68
2022/09/06 09:56:43;;;;;;;2.67;2.47;;;;;;;30.14;35.92;100045.56;4993217;28;20195;-69
2022/09/06 09:59:20;;;;;;;2.50;2.30;;;;;;;30.34;36.07;100058.75;4989668;28;20666;-73
2022/09/06 10:01:47;;;;;;;5.43;2.77;;;;;;;30.55;35.23;100062.63;4993037;28;20218;-73
2022/09/06 10:04:24;;;;;;;2.83;2.63;;;;;;;30.40;35.68;100070.41;4991221;28;20644;-73
2022/09/06 10:06:51;;;;;;;2.70;2.50;;;;;;;30.27;36.39;100057.56;4992817;28;20281;-75
2022/09/06 10:09:31;;;;;;;5.80;3.03;;;;;;;29.94;37.19;100046.00;4992769;28;20202;-73
2022/09/06 10:11:59;;;;;;;10.50;3.27;;;;;;;29.93;37.78;100044.38;4993674;28;20257;-74
2022/09/06 10:14:29;;;;;;;9.00;2.70;;;;;;;30.28;36.69;100046.31;4991567;28;20233;-74
2022/09/06 10:16:56;;;;;;;4.67;2.30;;;;;;;30.46;35.03;100042.53;4994749;28;20630;-73
2022/09/06 10:19:46;;;;;;;2.60;2.40;;;;;;;30.50;34.96;100050.97;4993688;28;20628;-74
2022/09/06 10:22:26;;;;;;;3.40;2.73;;;;;;;30.51;35.08;100034.22;4988834;28;20281;-75
2022/09/06 10:25:30;;;;;;;3.00;2.40;;;;;;;30.66;34.47;100028.31;4991842;28;20666;-75
2022/09/06 10:28:31;;;;;;;9.47;2.80;;;;;;;30.56;35.93;100025.84;4974590;28;20539;-76
2022/09/06 10:31:25;;;;;;;4.77;3.10;;;;;;;30.65;35.15;100012.97;4991056;28;20632;-75
2022/09/06 10:34:02;;;;;;;6.60;2.63;;;;;;;30.83;34.74;100022.13;4966033;28;20632;-75
2022/09/06 10:36:34;;;;;;;3.63;3.33;;;;;;;30.46;35.89;100011.59;4991785;28;20674;-75
2022/09/06 10:39:07;;;;;;;4.03;3.67;;;;;;;30.58;35.47;100012.59;4992552;28;20197;-75
2022/09/06 10:41:52;;;;;;;5.90;3.63;;;;;;;30.17;36.20;100011.25;4992131;28;20237;-75
2022/09/06 10:44:35;;;;;;;3.17;2.60;;;;;;;30.50;36.12;100009.84;4992486;28;20629;-75
2022/09/06 10:47:10;;;;;;;2.90;2.77;;;;;;;30.49;36.16;99998.03;4991966;28;20190;-76
2022/09/06 10:49:38;;;;;;;8.47;7.73;;;;;;;30.58;36.31;100006.34;4993042;28;20245;-75
2022/09/06 10:52:11;;;;;;;4.07;3.77;;;;;;;29.78;36.85;99964.47;4992345;28;20264;-75
2022/09/06 10:54:40;;;;;;;4.77;3.13;;;;;;;30.09;37.55;99993.56;4992432;28;20249;-75
2022/09/06 10:57:15;;;;;;;3.23;2.93;;;;;;;30.04;36.87;99979.19;4991660;28;20217;-75
2022/09/06 10:59:49;;;;;;;6.90;5.40;;;;;;;30.21;36.64;99988.34;4993513;28;20186;-75
2022/09/06 11:02:31;;;;;;;5.73;3.13;;;;;;;30.27;36.13;99995.34;4991914;28;20191;-75
2022/09/06 11:05:03;;;;;;;3.37;2.77;;;;;;;30.46;35.16;99989.66;4993524;28;20702;-75
2022/09/06 11:07:34;;;;;;;2.83;2.63;;;;;;;30.54;35.14;99995.16;4992030;28;20677;-75
2022/09/06 11:10:06;;;;;;;2.47;2.37;;;;;;;30.38;34.86;99979.44;4991838;28;20273;-75
2022/09/06 11:12:39;;;;;;;2.20;2.10;;;;;;;30.56;33.98;99986.63;4993298;28;20186;-75
2022/09/06 11:15:08;;;;;;;2.83;2.63;;;;;;;30.56;34.40;99987.44;4991753;28;20205;-75
2022/09/06 11:17:42;;;;;;;2.50;2.30;;;;;;;30.22;34.38;99976.28;4993212;28;20265;-75
2022/09/06 11:20:15;;;;;;;4.87;2.67;;;;;;;30.25;34.70;99975.66;4991297;28;20605;-75
2022/09/06 11:23:08;;;;;;;2.50;2.30;;;;;;;30.12;34.58;99983.91;4992159;28;20599;-74
2022/09/06 11:26:19;;;;;;;2.30;2.10;;;;;;;30.06;34.98;99971.47;4991687;28;20205;-75
2022/09/06 11:28:49;;;;;;;3.27;2.30;;;;;;;30.21;34.11;99969.16;4964634;28;20234;-75
2022/09/06 11:31:23;;;;;;;2.10;2.00;;;;;;;30.14;33.86;99973.47;4991479;28;20206;-75
2022/09/06 11:34:02;;;;;;;2.00;1.90;;;;;;;30.20;32.61;99967.56;4992349;28;20190;-74
2022/09/06 11:36:36;;;;;;;2.10;1.83;;;;;;;30.19;32.78;99965.94;4991622;28;20257;-75
2022/09/06 11:39:07;;;;;;;2.20;1.97;;;;;;;30.27;32.95;99967.94;4992572;28;20249;-74